sensor_id;sensor_type;location;lat;lon;timestamp;pressure;altitude;pressure_sealevel;temperature
76009;BMP280;64700;52.130;21.270;2023-10-31T00:00:09;99452.50;;;19.49
76009;BMP280;64700;52.130;21.270;2023-10-31T00:02:36;99461.38;;;19.49
76009;BMP280;64700;52.130;21.270;2023-10-31T00:05:01;99447.06;;;19.49
76009;BMP280;64700;52.130;21.270;2023-10-31T00:07:26;99439.41;;;19.47
76009;BMP280;64700;52.130;21.270;2023-10-31T00:09:51;99451.00;;;19.48
76009;BMP280;64700;52.130;21.270;2023-10-31T00:12:16;99431.28;;;19.47
76009;BMP280;64700;52.130;21.270;2023-10-31T00:14:42;99442.88;;;19.48
76009;BMP280;64700;52.130;21.270;2023-10-31T00:17:07;99438.66;;;19.47
76009;BMP280;64700;52.130;21.270;2023-10-31T00:19:32;99437.69;;;19.50
76009;BMP280;64700;52.130;21.270;2023-10-31T00:21:57;99432.25;;;19.50
76009;BMP280;64700;52.130;21.270;2023-10-31T00:24:22;99427.59;;;19.50
76009;BMP280;64700;52.130;21.270;2023-10-31T00:26:47;99423.41;;;19.49
76009;BMP280;64700;52.130;21.270;2023-10-31T00:29:13;99412.06;;;19.51
76009;BMP280;64700;52.130;21.270;2023-10-31T00:31:38;99409.34;;;19.51
76009;BMP280;64700;52.130;21.270;2023-10-31T00:34:06;99407.41;;;19.51
76009;BMP280;64700;52.130;21.270;2023-10-31T00:36:31;99401.97;;;19.51
76009;BMP280;64700;52.130;21.270;2023-10-31T00:38:56;99397.03;;;19.50
76009;BMP280;64700;52.130;21.270;2023-10-31T00:41:21;99393.84;;;19.51
76009;BMP280;64700;52.130;21.270;2023-10-31T00:43:47;99391.13;;;19.51
76009;BMP280;64700;52.130;21.270;2023-10-31T00:46:12;99394.31;;;19.50
76009;BMP280;64700;52.130;21.270;2023-10-31T00:48:37;99397.78;;;19.50
76009;BMP280;64700;52.130;21.270;2023-10-31T00:51:03;99396.31;;;19.49
76009;BMP280;64700;52.130;21.270;2023-10-31T00:53:28;99390.13;;;19.49
76009;BMP280;64700;52.130;21.270;2023-10-31T00:55:54;99381.50;;;19.50
76009;BMP280;64700;52.130;21.270;2023-10-31T00:58:19;99369.19;;;19.49
76009;BMP280;64700;52.130;21.270;2023-10-31T01:00:44;99373.88;;;19.49
76009;BMP280;64700;52.130;21.270;2023-10-31T01:03:09;99367.69;;;19.48
76009;BMP280;64700;52.130;21.270;2023-10-31T01:05:34;99359.56;;;19.48
76009;BMP280;64700;52.130;21.270;2023-10-31T01:07:59;99354.91;;;19.49
76009;BMP280;64700;52.130;21.270;2023-10-31T01:10:25;99350.69;;;19.48
76009;BMP280;64700;52.130;21.270;2023-10-31T01:12:50;99348.47;;;19.46
76009;BMP280;64700;52.130;21.270;2023-10-31T01:15:15;99346.03;;;19.48
76009;BMP280;64700;52.130;21.270;2023-10-31T01:17:40;99341.06;;;19.47
76009;BMP280;64700;52.130;21.270;2023-10-31T01:20:06;99330.97;;;19.47
76009;BMP280;64700;52.130;21.270;2023-10-31T01:22:31;99320.13;;;19.47
76009;BMP280;64700;52.130;21.270;2023-10-31T01:24:56;99321.34;;;19.46
76009;BMP280;64700;52.130;21.270;2023-10-31T01:27:22;99312.47;;;19.46
76009;BMP280;64700;52.130;21.270;2023-10-31T01:29:47;99315.94;;;19.46
76009;BMP280;64700;52.130;21.270;2023-10-31T01:32:12;99311.25;;;19.47
76009;BMP280;64700;52.130;21.270;2023-10-31T01:34:37;99298.19;;;19.45
76009;BMP280;64700;52.130;21.270;2023-10-31T01:37:02;99320.13;;;19.47
76009;BMP280;64700;52.130;21.270;2023-10-31T01:39:28;99305.84;;;19.47
76009;BMP280;64700;52.130;21.270;2023-10-31T01:41:53;99316.69;;;19.47
76009;BMP280;64700;52.130;21.270;2023-10-31T01:44:19;99321.63;;;19.48
76009;BMP280;64700;52.130;21.270;2023-10-31T01:46:45;99299.66;;;19.46
76009;BMP280;64700;52.130;21.270;2023-10-31T01:49:10;99290.31;;;19.47
76009;BMP280;64700;52.130;21.270;2023-10-31T01:51:35;99282.66;;;19.46
76009;BMP280;64700;52.130;21.270;2023-10-31T01:54:00;99273.31;;;19.47
76009;BMP280;64700;52.130;21.270;2023-10-31T01:56:26;99259.50;;;19.45
76009;BMP280;64700;52.130;21.270;2023-10-31T01:58:51;99251.63;;;19.47
76009;BMP280;64700;52.130;21.270;2023-10-31T02:01:17;99243.47;;;19.47
76009;BMP280;64700;52.130;21.270;2023-10-31T02:03:43;99226.97;;;19.45
76009;BMP280;64700;52.130;21.270;2023-10-31T02:06:08;99195.91;;;19.46
76009;BMP280;64700;52.130;21.270;2023-10-31T02:08:33;99204.78;;;19.46
76009;BMP280;64700;52.130;21.270;2023-10-31T02:10:58;99208.25;;;19.47
76009;BMP280;64700;52.130;21.270;2023-10-31T02:13:24;99210.22;;;19.46
76009;BMP280;64700;52.130;21.270;2023-10-31T02:15:49;99201.34;;;19.46
76009;BMP280;64700;52.130;21.270;2023-10-31T02:18:14;99192.94;;;19.44
76009;BMP280;64700;52.130;21.270;2023-10-31T02:20:40;99188.25;;;19.44
76009;BMP280;64700;52.130;21.270;2023-10-31T02:23:05;99194.44;;;19.45
76009;BMP280;64700;52.130;21.270;2023-10-31T02:25:30;99196.38;;;19.44
76009;BMP280;64700;52.130;21.270;2023-10-31T02:27:55;99187.06;;;19.45
76009;BMP280;64700;52.130;21.270;2023-10-31T02:30:21;99190.97;;;19.44
76009;BMP280;64700;52.130;21.270;2023-10-31T02:32:46;99176.22;;;19.45
76009;BMP280;64700;52.130;21.270;2023-10-31T02:35:11;99174.44;;;19.42
76009;BMP280;64700;52.130;21.270;2023-10-31T02:37:36;99167.06;;;19.43
76009;BMP280;64700;52.130;21.270;2023-10-31T02:40:02;99151.28;;;19.41
76009;BMP280;64700;52.130;21.270;2023-10-31T02:42:28;99162.84;;;19.42
76009;BMP280;64700;52.130;21.270;2023-10-31T02:44:53;99154.72;;;19.42
76009;BMP280;64700;52.130;21.270;2023-10-31T02:47:18;99163.59;;;19.42
76009;BMP280;64700;52.130;21.270;2023-10-31T02:49:44;99150.56;;;19.41
76009;BMP280;64700;52.130;21.270;2023-10-31T02:52:09;99147.09;;;19.40
76009;BMP280;64700;52.130;21.270;2023-10-31T02:54:34;99141.91;;;19.42
76009;BMP280;64700;52.130;21.270;2023-10-31T02:57:00;99132.28;;;19.41
76009;BMP280;64700;52.130;21.270;2023-10-31T02:59:25;99132.28;;;19.41
76009;BMP280;64700;52.130;21.270;2023-10-31T03:01:50;99133.53;;;19.40
76009;BMP280;64700;52.130;21.270;2023-10-31T03:04:15;99120.75;;;19.41
76009;BMP280;64700;52.130;21.270;2023-10-31T03:06:41;99130.84;;;19.40
76009;BMP280;64700;52.130;21.270;2023-10-31T03:09:06;99127.38;;;19.40
76009;BMP280;64700;52.130;21.270;2023-10-31T03:11:31;99111.13;;;19.40
76009;BMP280;64700;52.130;21.270;2023-10-31T03:13:57;99101.25;;;19.42
76009;BMP280;64700;52.130;21.270;2023-10-31T03:16:22;99109.91;;;19.41
76009;BMP280;64700;52.130;21.270;2023-10-31T03:18:48;99118.03;;;19.41
76009;BMP280;64700;52.130;21.270;2023-10-31T03:21:13;99112.09;;;19.42
76009;BMP280;64700;52.130;21.270;2023-10-31T03:23:39;99105.69;;;19.40
76009;BMP280;64700;52.130;21.270;2023-10-31T03:26:05;99099.06;;;19.41
76009;BMP280;64700;52.130;21.270;2023-10-31T03:28:30;99097.06;;;19.41
76009;BMP280;64700;52.130;21.270;2023-10-31T03:30:55;99097.06;;;19.41
76009;BMP280;64700;52.130;21.270;2023-10-31T03:33:20;99085.00;;;19.42
76009;BMP280;64700;52.130;21.270;2023-10-31T03:35:45;99093.63;;;19.41
76009;BMP280;64700;52.130;21.270;2023-10-31T03:38:11;99096.09;;;19.39
76009;BMP280;64700;52.130;21.270;2023-10-31T03:40:36;99082.06;;;19.40
76009;BMP280;64700;52.130;21.270;2023-10-31T03:43:01;99086.97;;;19.42
76009;BMP280;64700;52.130;21.270;2023-10-31T03:45:26;99067.75;;;19.40
76009;BMP280;64700;52.130;21.270;2023-10-31T03:47:52;99062.56;;;19.42
76009;BMP280;64700;52.130;21.270;2023-10-31T03:50:17;99053.69;;;19.41
76009;BMP280;64700;52.130;21.270;2023-10-31T03:52:42;99041.88;;;19.39
76009;BMP280;64700;52.130;21.270;2023-10-31T03:55:07;99023.16;;;19.41
76009;BMP280;64700;52.130;21.270;2023-10-31T03:57:33;99019.72;;;19.40
76009;BMP280;64700;52.130;21.270;2023-10-31T03:59:58;99019.72;;;19.40
76009;BMP280;64700;52.130;21.270;2023-10-31T04:02:23;99011.59;;;19.40
76009;BMP280;64700;52.130;21.270;2023-10-31T04:04:48;99002.94;;;19.42
76009;BMP280;64700;52.130;21.270;2023-10-31T04:07:14;99000.75;;;19.40
76009;BMP280;64700;52.130;21.270;2023-10-31T04:09:39;98998.25;;;19.42
76009;BMP280;64700;52.130;21.270;2023-10-31T04:12:04;99006.91;;;19.41
76009;BMP280;64700;52.130;21.270;2023-10-31T04:14:30;98988.41;;;19.39
76009;BMP280;64700;52.130;21.270;2023-10-31T04:16:55;99005.41;;;19.40
76009;BMP280;64700;52.130;21.270;2023-10-31T04:19:20;98988.41;;;19.39
76009;BMP280;64700;52.130;21.270;2023-10-31T04:21:45;98992.63;;;19.40
76009;BMP280;64700;52.130;21.270;2023-10-31T04:24:10;98991.34;;;19.41
76009;BMP280;64700;52.130;21.270;2023-10-31T04:26:35;98991.34;;;19.41
76009;BMP280;64700;52.130;21.270;2023-10-31T04:29:01;98980.53;;;19.41
76009;BMP280;64700;52.130;21.270;2023-10-31T04:31:26;98968.22;;;19.40
76009;BMP280;64700;52.130;21.270;2023-10-31T04:33:51;98963.53;;;19.41
76009;BMP280;64700;52.130;21.270;2023-10-31T04:36:16;98958.84;;;19.41
76009;BMP280;64700;52.130;21.270;2023-10-31T04:38:41;98971.16;;;19.42
76009;BMP280;64700;52.130;21.270;2023-10-31T04:41:07;98964.25;;;19.41
76009;BMP280;64700;52.130;21.270;2023-10-31T04:43:32;98955.91;;;19.39
76009;BMP280;64700;52.130;21.270;2023-10-31T04:45:58;98952.19;;;19.42
76009;BMP280;64700;52.130;21.270;2023-10-31T04:48:23;98939.16;;;19.41
76009;BMP280;64700;52.130;21.270;2023-10-31T04:50:48;98951.97;;;19.40
76009;BMP280;64700;52.130;21.270;2023-10-31T04:53:13;98937.66;;;19.40
76009;BMP280;64700;52.130;21.270;2023-10-31T04:55:38;98930.28;;;19.40
76009;BMP280;64700;52.130;21.270;2023-10-31T04:58:03;98931.03;;;19.41
76009;BMP280;64700;52.130;21.270;2023-10-31T05:00:29;98914.00;;;19.40
76009;BMP280;64700;52.130;21.270;2023-10-31T05:02:54;98916.22;;;19.42
76009;BMP280;64700;52.130;21.270;2023-10-31T05:05:21;98918.94;;;19.42
76009;BMP280;64700;52.130;21.270;2023-10-31T05:07:46;98914.75;;;19.41
76009;BMP280;64700;52.130;21.270;2023-10-31T05:10:11;98909.34;;;19.41
76009;BMP280;64700;52.130;21.270;2023-10-31T05:12:36;98907.34;;;19.41
76009;BMP280;64700;52.130;21.270;2023-10-31T05:15:02;98905.16;;;19.40
76009;BMP280;64700;52.130;21.270;2023-10-31T05:17:27;98896.50;;;19.41
76009;BMP280;64700;52.130;21.270;2023-10-31T05:19:53;98898.50;;;19.41
76009;BMP280;64700;52.130;21.270;2023-10-31T05:22:18;98888.88;;;19.40
76009;BMP280;64700;52.130;21.270;2023-10-31T05:24:43;98890.38;;;19.41
76009;BMP280;64700;52.130;21.270;2023-10-31T05:27:08;98876.06;;;19.40
76009;BMP280;64700;52.130;21.270;2023-10-31T05:29:34;98876.81;;;19.41
76009;BMP280;64700;52.130;21.270;2023-10-31T05:31:59;98873.38;;;19.40
76009;BMP280;64700;52.130;21.270;2023-10-31T05:34:26;98874.09;;;19.41
76009;BMP280;64700;52.130;21.270;2023-10-31T05:36:51;98874.84;;;19.47
76009;BMP280;64700;52.130;21.270;2023-10-31T05:39:16;98878.53;;;19.44
76009;BMP280;64700;52.130;21.270;2023-10-31T05:41:42;98859.56;;;19.44
76009;BMP280;64700;52.130;21.270;2023-10-31T05:44:07;98870.41;;;19.44
76009;BMP280;64700;52.130;21.270;2023-10-31T05:46:39;98882.75;;;19.45
76009;BMP280;64700;52.130;21.270;2023-10-31T05:49:06;98873.84;;;19.44
76009;BMP280;64700;52.130;21.270;2023-10-31T05:51:31;98870.41;;;19.44
76009;BMP280;64700;52.130;21.270;2023-10-31T05:53:56;98859.06;;;19.51
76009;BMP280;64700;52.130;21.270;2023-10-31T05:56:21;98872.63;;;19.51
76009;BMP280;64700;52.130;21.270;2023-10-31T05:58:47;98880.75;;;19.51
76009;BMP280;64700;52.130;21.270;2023-10-31T06:01:12;98885.69;;;19.47
76009;BMP280;64700;52.130;21.270;2023-10-31T06:03:37;98880.78;;;19.45
76009;BMP280;64700;52.130;21.270;2023-10-31T06:06:05;98897.50;;;19.44
76009;BMP280;64700;52.130;21.270;2023-10-31T06:08:31;98893.31;;;19.43
76009;BMP280;64700;52.130;21.270;2023-10-31T06:10:56;98879.00;;;19.42
76009;BMP280;64700;52.130;21.270;2023-10-31T06:13:21;98877.06;;;19.43
76009;BMP280;64700;52.130;21.270;2023-10-31T06:15:47;98891.81;;;19.42
76009;BMP280;64700;52.130;21.270;2023-10-31T06:18:12;98884.44;;;19.42
76009;BMP280;64700;52.130;21.270;2023-10-31T06:20:38;98882.94;;;19.41
76009;BMP280;64700;52.130;21.270;2023-10-31T06:23:04;98881.72;;;19.42
76009;BMP280;64700;52.130;21.270;2023-10-31T06:25:29;98870.16;;;19.42
76009;BMP280;64700;52.130;21.270;2023-10-31T06:27:55;98880.25;;;19.41
76009;BMP280;64700;52.130;21.270;2023-10-31T06:30:20;98861.78;;;19.40
76009;BMP280;64700;52.130;21.270;2023-10-31T06:32:45;98881.50;;;19.40
76009;BMP280;64700;52.130;21.270;2023-10-31T06:35:10;98887.66;;;19.41
76009;BMP280;64700;52.130;21.270;2023-10-31T06:37:35;98883.69;;;19.42
76009;BMP280;64700;52.130;21.270;2023-10-31T06:40:01;98889.63;;;19.40
76009;BMP280;64700;52.130;21.270;2023-10-31T06:42:26;98881.25;;;19.38
76009;BMP280;64700;52.130;21.270;2023-10-31T06:44:51;98879.28;;;19.39
76009;BMP280;64700;52.130;21.270;2023-10-31T06:47:17;98872.38;;;19.38
76009;BMP280;64700;52.130;21.270;2023-10-31T06:49:42;98863.75;;;19.39
76009;BMP280;64700;52.130;21.270;2023-10-31T06:52:07;98863.00;;;19.39
76009;BMP280;64700;52.130;21.270;2023-10-31T06:54:32;98864.97;;;19.38
76009;BMP280;64700;52.130;21.270;2023-10-31T06:56:57;98860.31;;;19.39
76009;BMP280;64700;52.130;21.270;2023-10-31T06:59:23;98860.31;;;19.39
76009;BMP280;64700;52.130;21.270;2023-10-31T07:01:48;98865.72;;;19.39
76009;BMP280;64700;52.130;21.270;2023-10-31T07:04:13;98871.88;;;19.39
76009;BMP280;64700;52.130;21.270;2023-10-31T07:06:39;98863.00;;;19.39
76009;BMP280;64700;52.130;21.270;2023-10-31T07:09:04;98863.50;;;19.37
76009;BMP280;64700;52.130;21.270;2023-10-31T07:11:30;98855.38;;;19.37
76009;BMP280;64700;52.130;21.270;2023-10-31T07:13:58;98856.84;;;19.38
76009;BMP280;64700;52.130;21.270;2023-10-31T07:16:24;98854.13;;;19.38
76009;BMP280;64700;52.130;21.270;2023-10-31T07:18:49;98857.34;;;19.37
76009;BMP280;64700;52.130;21.270;2023-10-31T07:21:14;98862.28;;;19.38
76009;BMP280;64700;52.130;21.270;2023-10-31T07:23:39;98859.56;;;19.38
76009;BMP280;64700;52.130;21.270;2023-10-31T07:26:04;98846.50;;;19.37
76009;BMP280;64700;52.130;21.270;2023-10-31T07:28:30;98839.84;;;19.38
76009;BMP280;64700;52.130;21.270;2023-10-31T07:30:55;98826.81;;;19.36
76009;BMP280;64700;52.130;21.270;2023-10-31T07:33:20;98826.06;;;19.36
76009;BMP280;64700;52.130;21.270;2023-10-31T07:35:45;98824.81;;;19.37
76009;BMP280;64700;52.130;21.270;2023-10-31T07:38:10;98807.84;;;19.36
76009;BMP280;64700;52.130;21.270;2023-10-31T07:40:36;98820.38;;;19.39
76009;BMP280;64700;52.130;21.270;2023-10-31T07:43:01;98810.56;;;19.36
76009;BMP280;64700;52.130;21.270;2023-10-31T07:45:26;98824.81;;;19.37
76009;BMP280;64700;52.130;21.270;2023-10-31T07:47:51;98832.22;;;19.36
76009;BMP280;64700;52.130;21.270;2023-10-31T07:50:16;98835.66;;;19.37
76009;BMP280;64700;52.130;21.270;2023-10-31T07:52:42;98830.25;;;19.37
76009;BMP280;64700;52.130;21.270;2023-10-31T07:55:08;98834.19;;;19.36
76009;BMP280;64700;52.130;21.270;2023-10-31T07:57:36;98820.66;;;19.36
76009;BMP280;64700;52.130;21.270;2023-10-31T08:00:01;98849.94;;;19.37
76009;BMP280;64700;52.130;21.270;2023-10-31T08:02:27;98858.06;;;19.37
76009;BMP280;64700;52.130;21.270;2023-10-31T08:04:52;98855.38;;;19.37
76009;BMP280;64700;52.130;21.270;2023-10-31T08:07:17;98861.31;;;19.36
76009;BMP280;64700;52.130;21.270;2023-10-31T08:09:43;98832.22;;;19.36
76009;BMP280;64700;52.130;21.270;2023-10-31T08:12:08;98816.47;;;19.35
76009;BMP280;64700;52.130;21.270;2023-10-31T08:14:33;98825.81;;;19.34
76009;BMP280;64700;52.130;21.270;2023-10-31T08:16:58;98829.28;;;19.34
76009;BMP280;64700;52.130;21.270;2023-10-31T08:19:23;98819.66;;;19.33
76009;BMP280;64700;52.130;21.270;2023-10-31T08:21:48;98813.50;;;19.33
76009;BMP280;64700;52.130;21.270;2023-10-31T08:24:14;98799.47;;;19.34
76009;BMP280;64700;52.130;21.270;2023-10-31T08:26:40;98798.72;;;19.34
76009;BMP280;64700;52.130;21.270;2023-10-31T08:29:05;98802.66;;;19.33
76009;BMP280;64700;52.130;21.270;2023-10-31T08:31:30;98789.38;;;19.35
76009;BMP280;64700;52.130;21.270;2023-10-31T08:33:55;98801.44;;;19.34
76009;BMP280;64700;52.130;21.270;2023-10-31T08:36:21;98788.38;;;19.32
76009;BMP280;64700;52.130;21.270;2023-10-31T08:38:46;98783.69;;;19.33
76009;BMP280;64700;52.130;21.270;2023-10-31T08:41:11;98789.84;;;19.33
76009;BMP280;64700;52.130;21.270;2023-10-31T08:43:36;98795.28;;;19.33
76009;BMP280;64700;52.130;21.270;2023-10-31T08:46:02;98794.78;;;19.35
76009;BMP280;64700;52.130;21.270;2023-10-31T08:48:27;98807.59;;;19.34
76009;BMP280;64700;52.130;21.270;2023-10-31T08:50:52;98812.28;;;19.34
76009;BMP280;64700;52.130;21.270;2023-10-31T08:53:17;98811.03;;;19.35
76009;BMP280;64700;52.130;21.270;2023-10-31T08:55:44;98813.00;;;19.34
76009;BMP280;64700;52.130;21.270;2023-10-31T08:58:12;98816.19;;;19.33
76009;BMP280;64700;52.130;21.270;2023-10-31T09:00:38;98823.09;;;19.34
76009;BMP280;64700;52.130;21.270;2023-10-31T09:03:03;98833.19;;;19.33
76009;BMP280;64700;52.130;21.270;2023-10-31T09:05:28;98815.47;;;19.32
76009;BMP280;64700;52.130;21.270;2023-10-31T09:07:53;98818.91;;;19.33
76009;BMP280;64700;52.130;21.270;2023-10-31T09:10:18;98817.69;;;19.34
76009;BMP280;64700;52.130;21.270;2023-10-31T09:12:44;98819.16;;;19.35
76009;BMP280;64700;52.130;21.270;2023-10-31T09:15:09;98812.28;;;19.34
76009;BMP280;64700;52.130;21.270;2023-10-31T09:17:34;98803.41;;;19.33
76009;BMP280;64700;52.130;21.270;2023-10-31T09:19:59;98801.91;;;19.32
76009;BMP280;64700;52.130;21.270;2023-10-31T09:22:25;98797.75;;;19.31
76009;BMP280;64700;52.130;21.270;2023-10-31T09:24:50;98800.47;;;19.31
76009;BMP280;64700;52.130;21.270;2023-10-31T09:27:16;98795.03;;;19.31
76009;BMP280;64700;52.130;21.270;2023-10-31T09:29:41;98797.75;;;19.31
76009;BMP280;64700;52.130;21.270;2023-10-31T09:32:06;98799.72;;;19.31
76009;BMP280;64700;52.130;21.270;2023-10-31T09:34:31;98792.34;;;19.31
76009;BMP280;64700;52.130;21.270;2023-10-31T09:36:57;98798.22;;;19.30
76009;BMP280;64700;52.130;21.270;2023-10-31T09:39:22;98787.38;;;19.30
76009;BMP280;64700;52.130;21.270;2023-10-31T09:41:48;98777.03;;;19.28
76009;BMP280;64700;52.130;21.270;2023-10-31T09:44:13;98781.22;;;19.29
76009;BMP280;64700;52.130;21.270;2023-10-31T09:46:38;98792.78;;;19.30
76009;BMP280;64700;52.130;21.270;2023-10-31T09:49:05;98796.28;;;19.30
76009;BMP280;64700;52.130;21.270;2023-10-31T09:51:31;98803.16;;;19.31
76009;BMP280;64700;52.130;21.270;2023-10-31T09:53:56;98797.75;;;19.31
76009;BMP280;64700;52.130;21.270;2023-10-31T09:56:22;98793.78;;;19.32
76009;BMP280;64700;52.130;21.270;2023-10-31T09:58:47;98801.19;;;19.32
76009;BMP280;64700;52.130;21.270;2023-10-31T10:01:13;98795.28;;;19.33
76009;BMP280;64700;52.130;21.270;2023-10-31T10:03:40;98778.28;;;19.33
76009;BMP280;64700;52.130;21.270;2023-10-31T10:06:05;98787.88;;;19.34
76009;BMP280;64700;52.130;21.270;2023-10-31T10:08:31;98781.22;;;19.35
76009;BMP280;64700;52.130;21.270;2023-10-31T10:10:56;98781.22;;;19.35
76009;BMP280;64700;52.130;21.270;2023-10-31T10:13:21;98781.22;;;19.35
76009;BMP280;64700;52.130;21.270;2023-10-31T10:15:47;98793.31;;;19.34
76009;BMP280;64700;52.130;21.270;2023-10-31T10:20:57;98794.78;;;19.35
76009;BMP280;64700;52.130;21.270;2023-10-31T10:23:23;98793.78;;;19.38
76009;BMP280;64700;52.130;21.270;2023-10-31T10:25:49;98784.91;;;19.37
76009;BMP280;64700;52.130;21.270;2023-10-31T10:28:14;98778.03;;;19.36
76009;BMP280;64700;52.130;21.270;2023-10-31T10:30:39;98767.19;;;19.36
76009;BMP280;64700;52.130;21.270;2023-10-31T10:33:06;98774.81;;;19.38
76009;BMP280;64700;52.130;21.270;2023-10-31T10:35:31;98773.59;;;19.39
76009;BMP280;64700;52.130;21.270;2023-10-31T10:37:56;98769.13;;;19.41
76009;BMP280;64700;52.130;21.270;2023-10-31T10:40:23;98773.84;;;19.41
76009;BMP280;64700;52.130;21.270;2023-10-31T10:42:48;98773.09;;;19.40
76009;BMP280;64700;52.130;21.270;2023-10-31T10:45:15;98771.13;;;19.41
76009;BMP280;64700;52.130;21.270;2023-10-31T10:47:43;98770.63;;;19.42
76009;BMP280;64700;52.130;21.270;2023-10-31T10:50:10;98780.72;;;19.42
76009;BMP280;64700;52.130;21.270;2023-10-31T10:52:53;98772.59;;;19.42
76009;BMP280;64700;52.130;21.270;2023-10-31T10:55:21;98767.91;;;19.42
76009;BMP280;64700;52.130;21.270;2023-10-31T11:00:14;98765.72;;;19.41
76009;BMP280;64700;52.130;21.270;2023-10-31T11:02:40;98771.34;;;19.43
76009;BMP280;64700;52.130;21.270;2023-10-31T11:05:07;98772.84;;;19.44
76009;BMP280;64700;52.130;21.270;2023-10-31T11:07:33;98774.81;;;19.43
76009;BMP280;64700;52.130;21.270;2023-10-31T11:09:59;98786.38;;;19.44
76009;BMP280;64700;52.130;21.270;2023-10-31T11:12:27;98789.84;;;19.44
76009;BMP280;64700;52.130;21.270;2023-10-31T11:14:52;98797.22;;;19.44
76009;BMP280;64700;52.130;21.270;2023-10-31T11:17:22;98799.94;;;19.44
76009;BMP280;64700;52.130;21.270;2023-10-31T11:19:49;98799.19;;;19.43
76009;BMP280;64700;52.130;21.270;2023-10-31T11:22:14;98795.53;;;19.41
76009;BMP280;64700;52.130;21.270;2023-10-31T11:24:42;98800.94;;;19.41
76009;BMP280;64700;52.130;21.270;2023-10-31T11:27:07;98807.81;;;19.42
76009;BMP280;64700;52.130;21.270;2023-10-31T11:29:33;98803.66;;;19.41
76009;BMP280;64700;52.130;21.270;2023-10-31T11:31:58;98804.34;;;19.41
76009;BMP280;64700;52.130;21.270;2023-10-31T11:34:27;98800.94;;;19.41
76009;BMP280;64700;52.130;21.270;2023-10-31T11:36:52;98811.03;;;19.40
76009;BMP280;64700;52.130;21.270;2023-10-31T11:39:18;98811.25;;;19.42
76009;BMP280;64700;52.130;21.270;2023-10-31T11:41:48;98811.78;;;19.41
76009;BMP280;64700;52.130;21.270;2023-10-31T11:44:15;98807.81;;;19.42
76009;BMP280;64700;52.130;21.270;2023-10-31T11:46:40;98793.53;;;19.41
76009;BMP280;64700;52.130;21.270;2023-10-31T11:49:05;98802.66;;;19.44
76009;BMP280;64700;52.130;21.270;2023-10-31T11:51:32;98801.66;;;19.41
76009;BMP280;64700;52.130;21.270;2023-10-31T11:53:57;98792.28;;;19.42
76009;BMP280;64700;52.130;21.270;2023-10-31T11:56:24;98805.84;;;19.42
76009;BMP280;64700;52.130;21.270;2023-10-31T11:58:56;98794.25;;;19.42
76009;BMP280;64700;52.130;21.270;2023-10-31T12:01:21;98786.13;;;19.42
76009;BMP280;64700;52.130;21.270;2023-10-31T12:03:46;98814.50;;;19.41
76009;BMP280;64700;52.130;21.270;2023-10-31T12:06:13;98813.75;;;19.40
76009;BMP280;64700;52.130;21.270;2023-10-31T12:08:39;98833.47;;;19.41
76009;BMP280;64700;52.130;21.270;2023-10-31T12:13:30;98836.88;;;19.41
76009;BMP280;64700;52.130;21.270;2023-10-31T12:15:55;98841.59;;;19.41
76009;BMP280;64700;52.130;21.270;2023-10-31T12:18:20;98835.44;;;19.40
76009;BMP280;64700;52.130;21.270;2023-10-31T12:20:49;98840.84;;;19.40
76009;BMP280;64700;52.130;21.270;2023-10-31T12:23:17;98843.56;;;19.40
76009;BMP280;64700;52.130;21.270;2023-10-31T12:25:52;98831.22;;;19.39
76009;BMP280;64700;52.130;21.270;2023-10-31T12:28:17;98846.25;;;19.40
76009;BMP280;64700;52.130;21.270;2023-10-31T12:30:46;98853.66;;;19.40
76009;BMP280;64700;52.130;21.270;2023-10-31T12:33:11;98858.34;;;19.39
76009;BMP280;64700;52.130;21.270;2023-10-31T12:35:37;98824.06;;;19.42
76009;BMP280;64700;52.130;21.270;2023-10-31T12:38:02;98828.75;;;19.41
76009;BMP280;64700;52.130;21.270;2023-10-31T12:40:27;98838.88;;;19.41
76009;BMP280;64700;52.130;21.270;2023-10-31T12:42:53;98830.75;;;19.41
76009;BMP280;64700;52.130;21.270;2023-10-31T12:45:18;98846.25;;;19.40
76009;BMP280;64700;52.130;21.270;2023-10-31T12:47:43;98840.84;;;19.40
76009;BMP280;64700;52.130;21.270;2023-10-31T12:50:09;98847.00;;;19.41
76009;BMP280;64700;52.130;21.270;2023-10-31T12:52:49;98859.81;;;19.40
76009;BMP280;64700;52.130;21.270;2023-10-31T12:55:16;98850.94;;;19.40
76009;BMP280;64700;52.130;21.270;2023-10-31T12:57:41;98854.41;;;19.40
76009;BMP280;64700;52.130;21.270;2023-10-31T13:00:07;98872.09;;;19.41
76009;BMP280;64700;52.130;21.270;2023-10-31T13:02:35;98890.38;;;19.41
76009;BMP280;64700;52.130;21.270;2023-10-31T13:05:10;98903.41;;;19.42
76009;BMP280;64700;52.130;21.270;2023-10-31T13:07:37;98914.25;;;19.42
76009;BMP280;64700;52.130;21.270;2023-10-31T13:10:02;98919.44;;;19.40
76009;BMP280;64700;52.130;21.270;2023-10-31T13:12:29;98927.56;;;19.40
76009;BMP280;64700;52.130;21.270;2023-10-31T13:14:54;98914.00;;;19.40
76009;BMP280;64700;52.130;21.270;2023-10-31T13:17:20;98916.47;;;19.38
76009;BMP280;64700;52.130;21.270;2023-10-31T13:19:45;98903.66;;;19.39
76009;BMP280;64700;52.130;21.270;2023-10-31T13:22:10;98896.00;;;19.37
76009;BMP280;64700;52.130;21.270;2023-10-31T13:24:35;98921.88;;;19.38
76009;BMP280;64700;52.130;21.270;2023-10-31T13:27:00;98931.50;;;19.39
76009;BMP280;64700;52.130;21.270;2023-10-31T13:29:27;98919.19;;;19.38
76009;BMP280;64700;52.130;21.270;2023-10-31T13:31:53;98930.75;;;19.39
76009;BMP280;64700;52.130;21.270;2023-10-31T13:34:18;98936.94;;;19.39
76009;BMP280;64700;52.130;21.270;2023-10-31T13:36:43;98936.19;;;19.39
76009;BMP280;64700;52.130;21.270;2023-10-31T13:39:09;98938.16;;;19.38
76009;BMP280;64700;52.130;21.270;2023-10-31T13:41:34;98928.78;;;19.39
76009;BMP280;64700;52.130;21.270;2023-10-31T13:43:59;98934.69;;;19.38
76009;BMP280;64700;52.130;21.270;2023-10-31T13:46:25;98936.66;;;19.37
76009;BMP280;64700;52.130;21.270;2023-10-31T13:48:50;98929.78;;;19.36
76009;BMP280;64700;52.130;21.270;2023-10-31T13:51:15;98935.94;;;19.37
76009;BMP280;64700;52.130;21.270;2023-10-31T13:53:41;98931.75;;;19.36